TAF LFOP
LFOP 090500Z 0906/1006 23010KT 9999 SCT015 BKN035 BECMG 0916/0918 17015KT OVC007 TEMPO 0918/1002 3000 RA OVC003 FM100200 30015KT 9999 BKN020 TEMPO 1002/1006 30020G30KT 3000 SHRA BKN010 BKN020TCU=
METAR LFOP
LFOP 090730Z AUTO 23010KT 9999 FEW033 02/00 Q1006 NOSIG=
LFOP 090700Z AUTO 23010KT 9999 FEW048 02/01 Q1005 NOSIG=
LFOP 090630Z AUTO 23010KT 9999 FEW031 SCT049 BKN058 03/01 Q1005 NOSIG=
LFOP 090600Z AUTO 24011KT 9999 BKN031 BKN054 BKN200 03/01 Q1005 NOSIG=
LFOP 090530Z AUTO 23012KT 9999 BKN034 BKN043 BKN056 03/01 Q1005=
WC LFOP
WS LFOP
WV LFOP